createdAt,value
2022-08-25T00:01:54.698Z,5.63
2022-08-25T00:04:24.806Z,7.27
2022-08-25T00:06:59.353Z,6.70
2022-08-25T00:09:33.645Z,5.50
2022-08-25T00:12:21.665Z,4.90
2022-08-25T00:14:50.106Z,8.57
2022-08-25T00:17:18.350Z,5.60
2022-08-25T00:19:46.861Z,7.70
2022-08-25T00:22:15.332Z,5.00
2022-08-25T00:24:43.637Z,5.83
2022-08-25T00:27:12.814Z,5.17
2022-08-25T00:29:42.661Z,5.67
2022-08-25T00:32:11.273Z,5.50
2022-08-25T00:34:40.940Z,6.00
2022-08-25T00:37:10.675Z,7.37
2022-08-25T00:39:39.734Z,4.87
2022-08-25T00:42:15.815Z,5.20
2022-08-25T00:44:46.731Z,5.50
2022-08-25T00:47:15.079Z,5.90
2022-08-25T00:49:47.897Z,9.00
2022-08-25T00:52:19.929Z,5.20
2022-08-25T00:54:52.408Z,5.57
2022-08-25T00:57:33.987Z,7.33
2022-08-25T01:00:11.837Z,5.73
2022-08-25T01:02:40.859Z,5.40
2022-08-25T01:05:10.456Z,7.23
2022-08-25T01:07:39.816Z,5.27
2022-08-25T01:10:10.649Z,5.40
2022-08-25T01:12:49.241Z,5.43
2022-08-25T01:15:19.416Z,9.30
2022-08-25T01:17:49.562Z,7.83
2022-08-25T01:20:19.977Z,5.93
2022-08-25T01:22:55.409Z,5.70
2022-08-25T01:25:32.317Z,5.80
2022-08-25T01:28:01.516Z,6.90
2022-08-25T01:30:30.829Z,5.17
2022-08-25T01:32:59.428Z,5.73
2022-08-25T01:35:27.635Z,7.07
2022-08-25T01:38:04.861Z,11.27
2022-08-25T01:40:33.768Z,6.10
2022-08-25T01:43:13.310Z,5.60
2022-08-25T01:45:44.018Z,7.73
2022-08-25T01:48:13.421Z,5.60
2022-08-25T01:50:43.957Z,5.70
2022-08-25T01:53:21.280Z,5.70
2022-08-25T01:56:01.855Z,6.83
2022-08-25T01:58:34.377Z,8.23
2022-08-25T02:01:04.495Z,5.37
2022-08-25T02:03:32.893Z,5.73
2022-08-25T02:06:05.165Z,8.20
2022-08-25T02:08:35.253Z,6.43
2022-08-25T02:11:03.712Z,5.50
2022-08-25T02:13:32.534Z,6.00
2022-08-25T02:16:03.058Z,6.20
2022-08-25T02:18:31.487Z,7.40
2022-08-25T02:21:00.329Z,5.93
2022-08-25T02:23:28.937Z,6.30
2022-08-25T02:25:59.159Z,5.70
2022-08-25T02:28:27.463Z,7.13
2022-08-25T02:31:01.265Z,6.27
2022-08-25T02:33:33.801Z,6.50
2022-08-25T02:36:10.084Z,9.60
2022-08-25T02:38:38.485Z,6.43
2022-08-25T02:41:13.837Z,7.13
2022-08-25T02:43:42.905Z,5.80
2022-08-25T02:46:12.220Z,7.57
2022-08-25T02:48:41.570Z,6.40
2022-08-25T02:51:14.374Z,6.17
2022-08-25T02:53:46.110Z,7.03
2022-08-25T02:56:18.279Z,6.33
2022-08-25T02:58:47.649Z,6.20
2022-08-25T03:01:16.958Z,6.70
2022-08-25T03:03:47.231Z,7.00
2022-08-25T03:06:19.481Z,7.07
2022-08-25T03:08:48.261Z,7.13
2022-08-25T03:11:19.183Z,8.83
2022-08-25T03:13:51.062Z,7.03
2022-08-25T03:16:20.673Z,6.90
2022-08-25T03:18:49.694Z,7.40
2022-08-25T03:21:19.380Z,6.50
2022-08-25T03:23:48.583Z,7.03
2022-08-25T03:26:36.184Z,8.23
2022-08-25T03:29:06.168Z,7.10
2022-08-25T03:31:36.718Z,7.77
2022-08-25T03:34:05.779Z,6.00
2022-08-25T03:36:33.964Z,9.33
2022-08-25T03:39:02.569Z,7.53
2022-08-25T03:41:33.806Z,7.30
2022-08-25T03:44:04.686Z,6.97
2022-08-25T03:46:35.642Z,11.20
2022-08-25T03:49:05.660Z,6.60
2022-08-25T03:51:35.858Z,6.97
2022-08-25T03:54:06.080Z,6.97
2022-08-25T03:56:35.958Z,7.73
2022-08-25T03:59:04.149Z,6.80
2022-08-25T04:01:32.700Z,9.40
2022-08-25T04:04:01.054Z,8.73
2022-08-25T04:06:29.445Z,7.47
2022-08-25T04:08:59.626Z,8.03
2022-08-25T04:11:29.909Z,8.13
2022-08-25T04:14:01.334Z,7.80
2022-08-25T04:16:34.072Z,9.30
2022-08-25T04:19:05.994Z,8.43
2022-08-25T04:21:34.909Z,7.07
2022-08-25T04:24:03.468Z,8.43
2022-08-25T04:26:35.471Z,8.43
2022-08-25T04:29:06.682Z,7.70
2022-08-25T04:31:35.359Z,7.90
2022-08-25T04:34:04.447Z,7.80
2022-08-25T04:36:45.722Z,8.20
2022-08-25T04:39:22.037Z,7.90
2022-08-25T04:41:51.385Z,7.40
2022-08-25T04:44:21.526Z,8.90
2022-08-25T04:46:50.045Z,7.73
2022-08-25T04:49:20.608Z,10.70
2022-08-25T04:51:49.564Z,8.63
2022-08-25T04:54:21.777Z,7.87
2022-08-25T04:56:58.026Z,11.60
2022-08-25T04:59:30.538Z,8.83
2022-08-25T05:02:02.314Z,8.83
2022-08-25T05:04:31.885Z,7.60
2022-08-25T05:07:00.298Z,8.90
2022-08-25T05:09:29.096Z,10.90
2022-08-25T05:12:13.394Z,12.00
2022-08-25T05:14:44.471Z,9.00
2022-08-25T05:17:12.775Z,8.23
2022-08-25T05:19:41.039Z,10.53
2022-08-25T05:22:09.681Z,9.40
2022-08-25T05:24:38.279Z,10.47
2022-08-25T05:27:06.794Z,10.33
2022-08-25T05:29:35.078Z,8.23
2022-08-25T05:32:05.296Z,11.60
2022-08-25T05:34:35.873Z,9.43
2022-08-25T05:37:05.479Z,8.33
2022-08-25T05:39:43.540Z,9.90
2022-08-25T05:42:15.392Z,9.43
2022-08-25T05:44:59.387Z,9.60
2022-08-25T05:47:44.787Z,7.83
2022-08-25T05:50:13.481Z,9.43
2022-08-25T05:53:08.154Z,10.57
2022-08-25T05:55:36.543Z,12.53
2022-08-25T05:58:06.680Z,9.10
2022-08-25T06:00:39.156Z,9.50
2022-08-25T06:03:07.742Z,12.93
2022-08-25T06:05:36.225Z,16.60
2022-08-25T06:08:05.444Z,12.20
2022-08-25T06:10:36.102Z,9.30
2022-08-25T06:13:06.476Z,8.90
2022-08-25T06:15:34.928Z,10.30
2022-08-25T06:18:03.455Z,9.90
2022-08-25T06:20:32.866Z,9.30
2022-08-25T06:26:35.840Z,16.80
2022-08-25T06:29:04.505Z,13.43
2022-08-25T06:31:32.630Z,11.27
2022-08-25T06:34:01.019Z,10.13
2022-08-25T06:36:29.648Z,11.77
2022-08-25T06:38:57.785Z,10.63
2022-08-25T06:41:36.598Z,10.40
2022-08-25T06:44:07.397Z,11.17
2022-08-25T06:46:39.259Z,11.30
2022-08-25T06:49:11.708Z,12.27
2022-08-25T06:51:39.982Z,10.80
2022-08-25T06:54:10.237Z,18.67
2022-08-25T06:56:38.923Z,11.07
2022-08-25T06:59:10.681Z,10.97
2022-08-25T07:01:39.129Z,10.40
2022-08-25T07:04:12.806Z,10.77
2022-08-25T07:06:43.698Z,12.48
2022-08-25T07:09:13.385Z,16.75
2022-08-25T07:12:05.838Z,12.15
2022-08-25T07:14:36.569Z,10.70
2022-08-25T07:17:11.511Z,10.75
2022-08-25T07:19:41.178Z,10.57
2022-08-25T07:22:09.606Z,10.18
2022-08-25T07:24:38.022Z,9.82
2022-08-25T07:27:07.112Z,11.93
2022-08-25T07:29:42.249Z,10.15
2022-08-25T07:32:11.263Z,10.77
2022-08-25T07:34:57.133Z,10.27
2022-08-25T07:37:47.582Z,11.18
2022-08-25T07:40:18.099Z,11.35
2022-08-25T07:42:46.685Z,12.05
2022-08-25T07:45:20.678Z,12.45
2022-08-25T07:47:52.215Z,12.82
2022-08-25T07:50:21.259Z,13.40
2022-08-25T07:52:55.143Z,10.95
2022-08-25T07:55:24.431Z,10.98
2022-08-25T07:57:55.983Z,11.55
2022-08-25T08:00:30.287Z,13.07
2022-08-25T08:02:59.333Z,11.07
2022-08-25T08:05:28.145Z,10.73
2022-08-25T08:07:56.863Z,10.32
2022-08-25T08:10:53.506Z,11.73
2022-08-25T08:13:18.102Z,10.40
2022-08-25T08:15:49.377Z,11.35
2022-08-25T08:18:20.215Z,10.98
2022-08-25T08:20:49.988Z,10.32
2022-08-25T08:23:19.311Z,10.70
2022-08-25T08:25:48.017Z,10.05
2022-08-25T08:28:16.357Z,11.32
2022-08-25T08:30:53.635Z,10.43
2022-08-25T08:33:25.862Z,10.00
2022-08-25T08:36:04.887Z,10.25
2022-08-25T08:38:35.004Z,10.55
2022-08-25T08:41:30.592Z,12.48
2022-08-25T08:44:11.615Z,9.07
2022-08-25T08:46:47.676Z,10.38
2022-08-25T08:49:27.674Z,10.40
2022-08-25T08:52:02.712Z,9.35
2022-08-25T08:54:38.806Z,10.00
2022-08-25T08:57:16.705Z,8.90
2022-08-25T08:59:50.655Z,9.05
2022-08-25T09:02:38.905Z,10.80
2022-08-25T09:05:12.864Z,8.98
2022-08-25T09:07:47.780Z,9.10
2022-08-25T09:10:17.409Z,8.60
2022-08-25T09:12:50.657Z,9.10
2022-08-25T09:15:49.412Z,9.27
2022-08-25T09:18:25.406Z,9.23
2022-08-25T09:21:13.654Z,8.90
2022-08-25T09:23:57.431Z,9.63
2022-08-25T09:26:34.468Z,8.57
2022-08-25T09:29:07.445Z,9.50
2022-08-25T09:31:46.430Z,11.95
2022-08-25T09:34:29.274Z,22.25
2022-08-25T09:36:59.518Z,23.13
2022-08-25T09:39:34.388Z,10.20
2022-08-25T09:42:32.017Z,10.48
2022-08-25T09:45:00.181Z,9.48
2022-08-25T09:47:29.353Z,10.35
2022-08-25T09:50:01.455Z,8.43
2022-08-25T09:52:41.748Z,12.93
2022-08-25T09:55:28.263Z,12.40
2022-08-25T09:57:58.413Z,9.73
2022-08-25T10:00:30.815Z,10.88
2022-08-25T10:03:24.953Z,11.18
2022-08-25T10:06:06.863Z,11.20
2022-08-25T10:08:42.667Z,10.43
2022-08-25T10:11:15.215Z,10.43
2022-08-25T10:13:46.724Z,10.15
2022-08-25T10:16:25.085Z,10.35
2022-08-25T10:19:10.069Z,10.25
2022-08-25T10:21:40.565Z,12.02
2022-08-25T10:24:12.419Z,10.77
2022-08-25T10:26:54.257Z,9.75
2022-08-25T10:29:43.941Z,11.52
2022-08-25T10:32:19.706Z,11.88
2022-08-25T10:34:51.883Z,10.93
2022-08-25T10:37:34.966Z,15.00
2022-08-25T10:40:16.496Z,10.60
2022-08-25T10:42:54.471Z,10.20
2022-08-25T10:45:49.605Z,11.57
2022-08-25T10:48:48.823Z,10.60
2022-08-25T10:51:51.237Z,12.98
2022-08-25T10:54:37.677Z,12.45
2022-08-25T10:57:18.922Z,10.10
2022-08-25T10:59:57.514Z,10.40
2022-08-25T11:03:01.126Z,11.15
2022-08-25T11:05:33.191Z,10.35
2022-08-25T11:08:09.876Z,10.10
2022-08-25T11:10:45.003Z,9.55
2022-08-25T11:13:25.779Z,9.55
2022-08-25T11:16:17.581Z,10.77
2022-08-25T11:18:54.255Z,11.82
2022-08-25T11:21:28.476Z,9.32
2022-08-25T11:24:06.073Z,9.18
2022-08-25T11:26:40.716Z,10.43
2022-08-25T11:29:16.521Z,10.63
2022-08-25T11:31:53.024Z,8.52
2022-08-25T11:34:23.401Z,8.77
2022-08-25T11:36:56.567Z,9.38
2022-08-25T11:39:41.938Z,8.75
2022-08-25T11:42:26.244Z,8.57
2022-08-25T11:45:08.477Z,7.80
2022-08-25T11:47:58.525Z,8.43
2022-08-25T11:50:58.978Z,8.10
2022-08-25T11:53:30.281Z,7.32
2022-08-25T11:56:03.231Z,7.65
2022-08-25T11:58:43.080Z,8.43
2022-08-25T12:01:50.754Z,6.72
2022-08-25T12:04:45.015Z,6.88
2022-08-25T12:08:13.519Z,8.90
2022-08-25T12:10:59.869Z,7.47
2022-08-25T12:13:47.633Z,6.72
2022-08-25T12:16:45.828Z,7.10
2022-08-25T12:19:26.966Z,7.28
2022-08-25T12:22:19.918Z,7.05
2022-08-25T12:24:53.227Z,7.07
2022-08-25T12:27:28.152Z,6.43
2022-08-25T12:30:02.155Z,6.47
2022-08-25T12:33:06.249Z,6.30
2022-08-25T12:35:40.570Z,7.10
2022-08-25T12:38:16.001Z,5.32
2022-08-25T12:40:59.527Z,6.38
2022-08-25T12:43:33.336Z,6.38
2022-08-25T12:46:34.344Z,6.15
2022-08-25T12:49:05.307Z,5.70
2022-08-25T12:51:54.566Z,5.90
2022-08-25T12:54:50.203Z,5.18
2022-08-25T12:58:06.326Z,5.78
2022-08-25T13:00:46.762Z,6.00
2022-08-25T13:10:13.946Z,5.78
2022-08-25T13:12:48.378Z,6.20
2022-08-25T13:15:30.580Z,4.55
2022-08-25T13:18:15.473Z,4.15
2022-08-25T13:20:45.525Z,5.05
2022-08-25T13:23:22.660Z,6.43
2022-08-25T13:25:54.441Z,4.75
2022-08-25T13:28:33.534Z,5.07
2022-08-25T13:31:05.865Z,6.05
2022-08-25T13:33:35.220Z,5.70
2022-08-25T13:36:22.060Z,5.60
2022-08-25T13:38:51.219Z,5.88
2022-08-25T13:41:36.759Z,5.13
2022-08-25T13:44:05.497Z,5.72
2022-08-25T13:46:35.509Z,6.13
2022-08-25T13:49:15.902Z,7.53
2022-08-25T13:51:53.738Z,6.40
2022-08-25T13:54:28.368Z,6.80
2022-08-25T13:57:07.422Z,6.72
2022-08-25T13:59:44.004Z,5.88
2022-08-25T14:02:45.277Z,5.50
2022-08-25T14:05:32.559Z,6.28
2022-08-25T14:08:23.245Z,6.38
2022-08-25T14:11:06.810Z,6.55
2022-08-25T14:13:48.502Z,7.43
2022-08-25T14:16:25.445Z,5.55
2022-08-25T14:25:44.839Z,6.47
2022-08-25T14:28:19.003Z,8.15
2022-08-25T14:30:52.260Z,5.60
2022-08-25T14:33:22.296Z,6.32
2022-08-25T14:35:55.111Z,5.95
2022-08-25T14:38:24.300Z,6.30
2022-08-25T14:40:53.914Z,6.90
2022-08-25T14:43:24.117Z,5.90
2022-08-25T14:46:03.619Z,7.00
2022-08-25T14:48:37.289Z,8.15
2022-08-25T14:51:06.076Z,6.88
2022-08-25T14:53:37.184Z,7.32
2022-08-25T14:56:10.414Z,9.05
2022-08-25T14:58:51.596Z,5.95
2022-08-25T15:01:30.239Z,7.07
2022-08-25T15:04:04.939Z,7.68
2022-08-25T15:06:36.202Z,7.10
2022-08-25T15:09:08.190Z,7.28
2022-08-25T15:11:41.588Z,7.10
2022-08-25T15:14:11.080Z,6.00
2022-08-25T15:16:45.502Z,7.60
2022-08-25T15:19:16.126Z,9.60
2022-08-25T15:21:45.635Z,6.30
2022-08-25T15:24:17.546Z,7.22
2022-08-25T15:26:56.499Z,6.78
2022-08-25T15:29:33.512Z,7.85
2022-08-25T15:32:20.625Z,7.07
2022-08-25T15:34:49.954Z,9.63
2022-08-25T15:37:18.564Z,6.35
2022-08-25T15:39:51.700Z,6.55
2022-08-25T15:42:21.890Z,5.90
2022-08-25T15:44:53.164Z,6.30
2022-08-25T15:47:25.383Z,6.28
2022-08-25T15:50:03.461Z,7.38
2022-08-25T15:52:46.632Z,6.00
2022-08-25T15:55:26.503Z,5.63
2022-08-25T15:58:03.672Z,6.30
2022-08-25T16:00:32.262Z,5.65
2022-08-25T16:03:02.131Z,5.93
2022-08-25T16:05:31.630Z,6.32
2022-08-25T16:07:59.994Z,6.00
2022-08-25T16:10:28.312Z,5.93
2022-08-25T16:12:58.146Z,5.57
2022-08-25T16:15:32.312Z,4.85
2022-08-25T16:18:05.002Z,6.15
2022-08-25T16:20:46.555Z,7.15
2022-08-25T16:23:16.069Z,5.70
2022-08-25T16:25:46.437Z,5.78
2022-08-25T16:28:24.453Z,6.35
2022-08-25T16:31:00.756Z,7.30
2022-08-25T16:41:49.654Z,6.13
2022-08-25T16:44:22.434Z,7.43
2022-08-25T16:46:54.565Z,5.55
2022-08-25T16:49:39.580Z,6.30
2022-08-25T16:52:28.796Z,7.97
2022-08-25T16:55:16.142Z,5.03
2022-08-25T16:57:47.800Z,5.05
2022-08-25T17:00:18.616Z,5.53
2022-08-25T17:02:47.751Z,5.40
2022-08-25T17:05:19.236Z,5.63
2022-08-25T17:08:08.928Z,7.25
2022-08-25T17:10:39.654Z,6.95
2022-08-25T17:13:08.762Z,7.10
2022-08-25T17:15:41.727Z,5.13
2022-08-25T17:18:11.270Z,13.80
2022-08-25T17:20:44.585Z,6.72
2022-08-25T17:23:13.561Z,6.20
2022-08-25T17:25:43.154Z,8.90
2022-08-25T17:28:13.944Z,6.50
2022-08-25T17:30:43.416Z,10.88
2022-08-25T17:33:11.969Z,5.85
2022-08-25T17:35:42.495Z,7.97
2022-08-25T17:38:16.710Z,5.50
2022-08-25T17:40:47.242Z,7.22
2022-08-25T17:43:15.390Z,6.10
2022-08-25T17:46:07.819Z,6.75
2022-08-25T17:48:47.095Z,6.90
2022-08-25T17:54:23.553Z,6.38
2022-08-25T17:56:53.297Z,11.43
2022-08-25T17:59:21.671Z,6.35
2022-08-25T18:01:55.359Z,7.07
2022-08-25T18:04:23.856Z,7.05
2022-08-25T18:06:58.595Z,6.15
2022-08-25T18:09:26.837Z,6.47
2022-08-25T18:11:55.246Z,6.00
2022-08-25T18:14:25.529Z,9.73
2022-08-25T18:16:54.535Z,7.28
2022-08-25T18:19:23.433Z,6.22
2022-08-25T18:21:52.909Z,7.40
2022-08-25T18:24:24.250Z,6.85
2022-08-25T18:26:52.647Z,7.10
2022-08-25T18:29:20.837Z,6.05
2022-08-25T18:31:49.885Z,6.65
2022-08-25T18:34:22.016Z,6.20
2022-08-25T18:36:50.673Z,6.57
2022-08-25T18:39:36.831Z,7.40
2022-08-25T18:42:07.576Z,11.15
2022-08-25T18:44:36.257Z,13.80
2022-08-25T18:47:07.641Z,6.22
2022-08-25T18:49:37.159Z,10.00
2022-08-25T18:52:07.413Z,6.35
2022-08-25T18:54:36.405Z,8.80
2022-08-25T18:57:08.935Z,7.77
2022-08-25T18:59:38.068Z,10.88
2022-08-25T19:02:07.302Z,7.27
2022-08-25T19:04:35.582Z,8.25
2022-08-25T19:07:04.333Z,6.95
2022-08-25T19:09:36.877Z,7.70
2022-08-25T19:12:11.591Z,10.87
2022-08-25T19:14:50.735Z,10.57
2022-08-25T19:17:19.090Z,7.97
2022-08-25T19:19:55.383Z,9.48
2022-08-25T19:22:40.643Z,8.63
2022-08-25T19:25:10.642Z,8.37
2022-08-25T19:27:41.991Z,6.43
2022-08-25T19:30:13.312Z,6.43
2022-08-25T19:32:44.657Z,7.03
2022-08-25T19:35:18.625Z,10.30
2022-08-25T19:37:46.922Z,7.37
2022-08-25T19:40:18.231Z,7.27
2022-08-25T19:42:53.830Z,7.47
2022-08-25T19:45:24.836Z,7.40
2022-08-25T19:47:54.158Z,7.00
2022-08-25T19:50:23.856Z,8.10
2022-08-25T19:52:52.854Z,7.07
2022-08-25T19:55:24.773Z,8.10
2022-08-25T19:58:03.401Z,10.50
2022-08-25T20:00:35.375Z,7.20
2022-08-25T20:03:05.565Z,6.60
2022-08-25T20:05:34.902Z,6.30
2022-08-25T20:08:05.547Z,9.50
2022-08-25T20:10:41.623Z,7.50
2022-08-25T20:13:14.300Z,6.83
2022-08-25T20:15:43.587Z,7.93
2022-08-25T20:18:11.906Z,7.17
2022-08-25T20:20:40.156Z,8.23
2022-08-25T20:23:35.310Z,6.37
2022-08-25T20:26:05.971Z,8.30
2022-08-25T20:28:35.538Z,6.73
2022-08-25T20:31:04.449Z,7.40
2022-08-25T20:33:34.661Z,6.27
2022-08-25T20:36:05.354Z,8.17
2022-08-25T20:38:33.448Z,6.87
2022-08-25T20:41:04.262Z,7.00
2022-08-25T20:43:32.603Z,8.77
2022-08-25T20:46:06.424Z,7.30
2022-08-25T20:48:39.190Z,6.97
2022-08-25T20:51:08.553Z,7.03
2022-08-25T20:53:38.733Z,6.67
2022-08-25T20:56:09.676Z,10.07
2022-08-25T20:58:37.936Z,7.83
2022-08-25T21:01:11.723Z,7.10
2022-08-25T21:03:41.683Z,7.03
2022-08-25T21:06:12.539Z,16.83
2022-08-25T21:08:47.349Z,28.33
2022-08-25T21:11:19.528Z,11.27
2022-08-25T21:13:48.628Z,9.07
2022-08-25T21:16:19.378Z,7.33
2022-08-25T21:18:48.248Z,7.30
2022-08-25T21:21:17.506Z,8.50
2022-08-25T21:23:48.447Z,7.87
2022-08-25T21:26:18.816Z,7.60
2022-08-25T21:28:48.352Z,7.70
2022-08-25T21:31:22.160Z,7.73
2022-08-25T21:33:54.073Z,6.80
2022-08-25T21:36:23.314Z,7.30
2022-08-25T21:38:52.416Z,9.73
2022-08-25T21:44:10.588Z,9.50
2022-08-25T21:46:54.149Z,7.70
2022-08-25T21:49:25.339Z,8.53
2022-08-25T21:52:03.386Z,8.30
2022-08-25T21:54:33.429Z,7.77
2022-08-25T21:57:04.144Z,8.90
2022-08-25T21:59:35.314Z,6.83
2022-08-25T22:02:11.454Z,7.50
2022-08-25T22:04:42.883Z,7.43
2022-08-25T22:07:11.680Z,8.00
2022-08-25T22:09:41.396Z,7.30
2022-08-25T22:12:12.898Z,8.13
2022-08-25T22:14:45.838Z,10.30
2022-08-25T22:17:21.151Z,9.57
2022-08-25T22:20:23.450Z,9.23
2022-08-25T22:22:53.816Z,8.27
2022-08-25T22:25:23.547Z,8.23
2022-08-25T22:27:56.686Z,8.70
2022-08-25T22:30:29.405Z,10.53
2022-08-25T22:32:59.755Z,7.43
2022-08-25T22:35:28.522Z,11.10
2022-08-25T22:37:57.161Z,7.80
2022-08-25T22:40:29.611Z,9.90
2022-08-25T22:42:58.107Z,8.33
2022-08-25T22:45:27.646Z,10.73
2022-08-25T22:47:55.945Z,10.70
2022-08-25T22:50:26.037Z,9.90
2022-08-25T22:52:55.047Z,8.20
2022-08-25T22:55:25.450Z,9.50
2022-08-25T22:57:56.671Z,14.83
2022-08-25T23:00:26.052Z,8.70
2022-08-25T23:02:54.215Z,9.33
2022-08-25T23:05:22.989Z,8.33
2022-08-25T23:07:52.778Z,8.00
2022-08-25T23:10:22.838Z,9.23
2022-08-25T23:12:51.972Z,8.10
2022-08-25T23:15:20.106Z,8.90
2022-08-25T23:17:48.298Z,8.83
2022-08-25T23:20:35.091Z,9.13
2022-08-25T23:23:05.851Z,8.47
2022-08-25T23:25:41.162Z,8.60
2022-08-25T23:28:09.688Z,9.27
2022-08-25T23:30:39.977Z,8.40
2022-08-25T23:33:12.062Z,9.50
2022-08-25T23:35:40.544Z,8.27
2022-08-25T23:38:12.530Z,11.40
2022-08-25T23:40:43.827Z,8.67
2022-08-25T23:43:15.401Z,9.43
2022-08-25T23:45:43.701Z,9.70
2022-08-25T23:48:13.117Z,9.20
2022-08-25T23:50:54.198Z,8.17
2022-08-25T23:53:24.345Z,8.93
2022-08-25T23:55:54.177Z,10.50
2022-08-25T23:58:23.021Z,9.33
